Terminal Aerodrome Forecast
Issued by NWS Quad Cities IA IL

Home | Current Version | Previous Version | Text Only | Print | Product List | Glossary On
Versions: 1 2 3 4 5 6 7 8 9 10 11 12 13 14
000
FTUS43 KDVN 251147
TAFDBQ
TAF
KDBQ 251147Z 2512/2612 16007KT P6SM SCT250
     FM251500 16012KT P6SM BKN250
     FM260000 14010KT P6SM BKN150
     FM260800 13008KT P6SM VCSH BKN035 OVC080 PROB30 2609/2612 3SM
      -SHRA BR OVC025=

USA.gov is the U.S. government's official web portal to all federal, state and local government web resources and services.